Garanhuns, Brazil
Current Conditions -  °F | °C
As of 1:00 AM on Friday 19 Dec 2014 (Local Time) from SBMO Reporting Station
Scattered Clouds Scattered Clouds  
Wind Chill: 75°   Ceiling: Unl
Heat Index: 75°   Visibility: 6mi
Dew Point: 72°   Wind: 2mph
Humidity: 89%   Direction: 50°NE
Pressure: 29.88"   Gusts: NA
Location:  8.89°S, 36.5°W
Report Text: SBMO 190400Z 05002KT 9999 FEW018 SCT070 24/22 Q1012
Loading
Personal Weather Stations






























Interactive Weather Map New forecast layout! Learn more

10-Day Weather Forecast

Advertisements
Track Severe Weather on mobile